Time,TemperatureF,DewpointF,PressureIn,WindDirection,WindDirectionDegrees,WindSpeedMPH,WindSpeedGustMPH,Humidity,HourlyPrecipIn,Conditions,Clouds,dailyrainin,SoftwareType,DateUTC
2013-03-26 00:11:00,36.6,30.0,29.86,NNW,334,1.0,-999.0,78,-99.99,,,0.00,weatherlink.com 1.10,2013-03-26 04:11:00,
2013-03-26 00:27:00,36.7,30.0,29.86,NNW,338,1.0,-999.0,77,-99.99,,,0.00,weatherlink.com 1.10,2013-03-26 04:27:00,
2013-03-26 00:42:00,36.7,30.0,29.86,NNW,329,2.0,-999.0,76,-99.99,,,0.00,weatherlink.com 1.10,2013-03-26 04:42:00,
2013-03-26 00:56:00,36.7,30.0,29.86,WNW,288,0.0,-999.0,76,-99.99,,,0.00,weatherlink.com 1.10,2013-03-26 04:56:00,
2013-03-26 01:11:00,36.7,29.0,29.86,NW,315,3.0,-999.0,75,-99.99,,,0.00,weatherlink.com 1.10,2013-03-26 05:11:00,
2013-03-26 01:41:00,36.8,29.0,29.86,NW,309,4.0,-999.0,74,-99.99,,,0.00,weatherlink.com 1.10,2013-03-26 05:41:00,
2013-03-26 01:56:00,36.8,29.0,29.87,NNW,336,3.0,-999.0,74,-99.99,,,0.00,weatherlink.com 1.10,2013-03-26 05:56:00,
2013-03-26 02:11:00,36.7,29.0,29.87,NW,305,3.0,-999.0,74,-99.99,,,0.00,weatherlink.com 1.10,2013-03-26 06:11:00,
2013-03-26 02:26:00,36.6,29.0,29.87,West,263,4.0,-999.0,73,-99.99,,,0.00,weatherlink.com 1.10,2013-03-26 06:26:00,
2013-03-26 02:41:00,36.5,29.0,29.88,NW,316,1.0,-999.0,73,-99.99,,,0.00,weatherlink.com 1.10,2013-03-26 06:41:00,
2013-03-26 02:56:00,36.5,29.0,29.88,NNW,340,0.0,-999.0,73,-99.99,,,0.00,weatherlink.com 1.10,2013-03-26 06:56:00,
2013-03-26 03:11:00,36.5,29.0,29.87,WNW,294,2.0,-999.0,73,-99.99,,,0.00,weatherlink.com 1.10,2013-03-26 07:11:00,
2013-03-26 03:26:00,36.4,29.0,29.87,West,272,2.0,-999.0,74,-99.99,,,0.00,weatherlink.com 1.10,2013-03-26 07:26:00,
2013-03-26 03:42:00,36.2,29.0,29.87,WSW,255,1.0,-999.0,74,-99.99,,,0.00,weatherlink.com 1.10,2013-03-26 07:42:00,
2013-03-26 03:56:00,36.2,29.0,29.88,West,279,1.0,-999.0,74,-99.99,,,0.00,weatherlink.com 1.10,2013-03-26 07:56:00,
2013-03-26 04:11:00,36.0,29.0,29.88,NNW,329,1.0,-999.0,75,-99.99,,,0.00,weatherlink.com 1.10,2013-03-26 08:11:00,
2013-03-26 04:27:00,35.9,29.0,29.88,NNW,328,0.0,-999.0,75,-99.99,,,0.00,weatherlink.com 1.10,2013-03-26 08:27:00,
2013-03-26 04:41:00,35.8,29.0,29.88,NNW,327,5.0,-999.0,76,-99.99,,,0.00,weatherlink.com 1.10,2013-03-26 08:41:00,
2013-03-26 04:57:00,35.8,29.0,29.88,NW,304,0.0,-999.0,76,-99.99,,,0.00,weatherlink.com 1.10,2013-03-26 08:57:00,
2013-03-26 05:12:00,35.7,29.0,29.89,NW,313,1.0,-999.0,76,-99.99,,,0.00,weatherlink.com 1.10,2013-03-26 09:12:00,
2013-03-26 05:27:00,35.6,29.0,29.89,WNW,298,1.0,-999.0,76,-99.99,,,0.00,weatherlink.com 1.10,2013-03-26 09:27:00,
2013-03-26 05:42:00,35.5,29.0,29.89,WNW,298,1.0,-999.0,77,-99.99,,,0.00,weatherlink.com 1.10,2013-03-26 09:42:00,
2013-03-26 05:57:00,35.5,29.0,29.90,NW,324,0.0,-999.0,77,-99.99,,,0.00,weatherlink.com 1.10,2013-03-26 09:57:00,
2013-03-26 06:12:00,35.4,29.0,29.90,West,269,0.0,-999.0,77,-99.99,,,0.00,weatherlink.com 1.10,2013-03-26 10:12:00,
2013-03-26 06:27:00,35.3,29.0,29.91,WNW,299,0.0,-999.0,78,-99.99,,,0.00,weatherlink.com 1.10,2013-03-26 10:27:00,
2013-03-26 06:42:00,35.3,29.0,29.91,WSW,256,0.0,-999.0,78,-99.99,,,0.00,weatherlink.com 1.10,2013-03-26 10:42:00,
2013-03-26 06:57:00,35.3,29.0,29.92,NW,311,2.0,-999.0,78,-99.99,,,0.00,weatherlink.com 1.10,2013-03-26 10:57:00,
2013-03-26 07:12:00,35.2,29.0,29.92,NNW,331,0.0,-999.0,79,-99.99,,,0.00,weatherlink.com 1.10,2013-03-26 11:12:00,
2013-03-26 07:27:00,35.2,29.0,29.92,West,269,0.0,-999.0,79,-99.99,,,0.00,weatherlink.com 1.10,2013-03-26 11:27:00,
2013-03-26 07:42:00,35.1,30.0,29.93,West,269,0.0,-999.0,80,-99.99,,,0.00,weatherlink.com 1.10,2013-03-26 11:42:00,
2013-03-26 07:57:00,35.0,29.0,29.94,NW,313,2.0,-999.0,80,-99.99,,,0.00,weatherlink.com 1.10,2013-03-26 11:57:00,
2013-03-26 08:12:00,35.1,30.0,29.95,WNW,295,1.0,-999.0,80,-99.99,,,0.00,weatherlink.com 1.10,2013-03-26 12:12:00,
2013-03-26 08:27:00,35.2,30.0,29.95,WNW,288,3.0,-999.0,80,-99.99,,,0.00,weatherlink.com 1.10,2013-03-26 12:27:00,
2013-03-26 08:42:00,35.3,30.0,29.95,West,270,0.0,-999.0,80,-99.99,,,0.00,weatherlink.com 1.10,2013-03-26 12:42:00,
2013-03-26 08:57:00,35.5,30.0,29.96,West,266,0.0,-999.0,80,-99.99,,,0.00,weatherlink.com 1.10,2013-03-26 12:57:00,
2013-03-26 09:12:00,35.7,30.0,29.96,West,265,0.0,-999.0,80,-99.99,,,0.00,weatherlink.com 1.10,2013-03-26 13:12:00,
2013-03-26 09:28:00,36.0,30.0,29.97,West,267,3.0,-999.0,80,-99.99,,,0.00,weatherlink.com 1.10,2013-03-26 13:28:00,
2013-03-26 09:43:00,36.3,30.0,29.97,West,275,1.0,-999.0,79,-99.99,,,0.00,weatherlink.com 1.10,2013-03-26 13:43:00,
2013-03-26 09:57:00,36.7,30.0,29.97,West,271,1.0,-999.0,78,-99.99,,,0.00,weatherlink.com 1.10,2013-03-26 13:57:00,
2013-03-26 10:12:00,37.2,31.0,29.97,NW,308,1.0,-999.0,78,-99.99,,,0.00,weatherlink.com 1.10,2013-03-26 14:12:00,
2013-03-26 10:28:00,37.8,31.0,29.98,NW,326,1.0,-999.0,77,-99.99,,,0.00,weatherlink.com 1.10,2013-03-26 14:28:00,
2013-03-26 10:43:00,38.1,31.0,29.98,West,265,0.0,-999.0,75,-99.99,,,0.00,weatherlink.com 1.10,2013-03-26 14:43:00,
2013-03-26 10:58:00,38.8,32.0,29.98,WNW,289,2.0,-999.0,75,-99.99,,,0.00,weatherlink.com 1.10,2013-03-26 14:58:00,
2013-03-26 11:13:00,39.7,32.0,29.98,NW,319,3.0,-999.0,73,-99.99,,,0.00,weatherlink.com 1.10,2013-03-26 15:13:00,
2013-03-26 11:28:00,40.7,32.0,29.98,NW,320,2.0,-999.0,71,-99.99,,,0.00,weatherlink.com 1.10,2013-03-26 15:28:00,
2013-03-26 11:43:00,41.4,32.0,29.99,WNW,294,2.0,-999.0,70,-99.99,,,0.00,weatherlink.com 1.10,2013-03-26 15:43:00,
2013-03-26 11:58:00,41.6,32.0,29.98,NNW,346,5.0,-999.0,69,-99.99,,,0.00,weatherlink.com 1.10,2013-03-26 15:58:00,
2013-03-26 12:13:00,42.6,33.0,29.99,WNW,296,5.0,-999.0,68,-99.99,,,0.00,weatherlink.com 1.10,2013-03-26 16:13:00,
2013-03-26 12:29:00,43.3,33.0,29.98,NW,316,3.0,-999.0,66,-99.99,,,0.00,weatherlink.com 1.10,2013-03-26 16:29:00,
2013-03-26 12:44:00,43.8,32.0,29.98,NW,307,2.0,-999.0,64,-99.99,,,0.00,weatherlink.com 1.10,2013-03-26 16:44:00,
2013-03-26 12:58:00,44.0,32.0,29.98,North,355,4.0,-999.0,64,-99.99,,,0.00,weatherlink.com 1.10,2013-03-26 16:58:00,
2013-03-26 13:13:00,44.2,32.0,29.98,NW,323,7.0,-999.0,62,-99.99,,,0.00,weatherlink.com 1.10,2013-03-26 17:13:00,
2013-03-26 13:28:00,44.8,31.0,29.98,SW,222,7.0,-999.0,60,-99.99,,,0.00,weatherlink.com 1.10,2013-03-26 17:28:00,
2013-03-26 13:43:00,45.6,32.0,29.97,WNW,300,4.0,-999.0,60,-99.99,,,0.00,weatherlink.com 1.10,2013-03-26 17:43:00,
2013-03-26 13:58:00,45.0,31.0,29.98,NNW,348,4.0,-999.0,59,-99.99,,,0.00,weatherlink.com 1.10,2013-03-26 17:58:00,
2013-03-26 14:13:00,44.8,31.0,29.98,WNW,282,1.0,-999.0,60,-99.99,,,0.00,weatherlink.com 1.10,2013-03-26 18:13:00,
2013-03-26 14:28:00,44.6,31.0,29.98,WNW,296,1.0,-999.0,59,-99.99,,,0.00,weatherlink.com 1.10,2013-03-26 18:28:00,
2013-03-26 14:43:00,44.5,30.0,29.98,NW,311,0.0,-999.0,57,-99.99,,,0.00,weatherlink.com 1.10,2013-03-26 18:43:00,
2013-03-26 14:58:00,44.6,30.0,29.97,NNW,343,5.0,-999.0,56,-99.99,,,0.00,weatherlink.com 1.10,2013-03-26 18:58:00,
2013-03-26 15:13:00,45.0,30.0,29.97,NW,317,6.0,-999.0,55,-99.99,,,0.00,weatherlink.com 1.10,2013-03-26 19:13:00,
2013-03-26 15:28:00,44.7,29.0,29.97,WNW,286,3.0,-999.0,54,-99.99,,,0.00,weatherlink.com 1.10,2013-03-26 19:28:00,
2013-03-26 15:43:00,44.3,31.0,29.97,West,263,1.0,-999.0,59,-99.99,,,0.00,weatherlink.com 1.10,2013-03-26 19:43:00,
2013-03-26 15:58:00,43.8,31.0,29.98,NW,315,1.0,-999.0,60,-99.99,,,0.00,weatherlink.com 1.10,2013-03-26 19:58:00,
2013-03-26 16:13:00,44.0,30.0,29.97,NW,321,2.0,-999.0,58,-99.99,,,0.00,weatherlink.com 1.10,2013-03-26 20:13:00,
2013-03-26 16:28:00,44.6,30.0,29.98,NNW,343,1.0,-999.0,57,-99.99,,,0.00,weatherlink.com 1.10,2013-03-26 20:28:00,
2013-03-26 16:43:00,44.9,29.0,29.98,WNW,297,1.0,-999.0,55,-99.99,,,0.00,weatherlink.com 1.10,2013-03-26 20:43:00,
2013-03-26 16:58:00,44.5,30.0,29.98,NW,311,9.0,-999.0,57,-99.99,,,0.00,weatherlink.com 1.10,2013-03-26 20:58:00,
2013-03-26 17:14:00,44.3,30.0,29.98,West,274,2.0,-999.0,58,-99.99,,,0.00,weatherlink.com 1.10,2013-03-26 21:14:00,
2013-03-26 17:29:00,43.3,31.0,29.99,NW,310,4.0,-999.0,63,-99.99,,,0.00,weatherlink.com 1.10,2013-03-26 21:29:00,
2013-03-26 17:43:00,42.9,31.0,29.99,West,271,2.0,-999.0,62,-99.99,,,0.00,weatherlink.com 1.10,2013-03-26 21:43:00,
2013-03-26 18:14:00,42.4,29.0,29.99,WNW,303,7.0,-999.0,59,-99.99,,,0.00,weatherlink.com 1.10,2013-03-26 22:14:00,
2013-03-26 18:28:00,42.1,30.0,30.00,WSW,253,2.0,-999.0,62,-99.99,,,0.00,weatherlink.com 1.10,2013-03-26 22:28:00,
2013-03-26 18:44:00,42.0,31.0,30.01,West,267,3.0,-999.0,64,-99.99,,,0.00,weatherlink.com 1.10,2013-03-26 22:44:00,
2013-03-26 19:14:00,40.2,31.0,30.02,WSW,254,1.0,-999.0,69,-99.99,,,0.00,weatherlink.com 1.10,2013-03-26 23:14:00,
2013-03-26 19:29:00,39.7,29.0,30.02,WSW,253,0.0,-999.0,67,-99.99,,,0.00,weatherlink.com 1.10,2013-03-26 23:29:00,
2013-03-26 19:44:00,39.0,31.0,30.03,WSW,247,1.0,-999.0,72,-99.99,,,0.00,weatherlink.com 1.10,2013-03-26 23:44:00,
2013-03-26 19:59:00,38.9,31.0,30.03,WSW,250,0.0,-999.0,72,-99.99,,,0.00,weatherlink.com 1.10,2013-03-26 23:59:00,
2013-03-26 20:14:00,39.0,31.0,30.03,WSW,252,0.0,-999.0,72,-99.99,,,0.00,weatherlink.com 1.10,2013-03-27 00:14:00,
2013-03-26 20:29:00,39.0,31.0,30.03,West,262,0.0,-999.0,72,-99.99,,,0.00,weatherlink.com 1.10,2013-03-27 00:29:00,
2013-03-26 20:44:00,38.9,31.0,30.04,WNW,300,0.0,-999.0,73,-99.99,,,0.00,weatherlink.com 1.10,2013-03-27 00:44:00,
2013-03-26 20:59:00,38.8,31.0,30.04,West,266,0.0,-999.0,73,-99.99,,,0.00,weatherlink.com 1.10,2013-03-27 00:59:00,
2013-03-26 21:14:00,38.9,31.0,30.04,West,265,1.0,-999.0,74,-99.99,,,0.00,weatherlink.com 1.10,2013-03-27 01:14:00,
2013-03-26 21:29:00,38.9,31.0,30.04,West,260,0.0,-999.0,74,-99.99,,,0.00,weatherlink.com 1.10,2013-03-27 01:29:00,
2013-03-26 21:44:00,38.8,32.0,30.04,West,259,0.0,-999.0,75,-99.99,,,0.00,weatherlink.com 1.10,2013-03-27 01:44:00,
2013-03-26 21:59:00,38.7,31.0,30.05,WSW,254,0.0,-999.0,75,-99.99,,,0.00,weatherlink.com 1.10,2013-03-27 01:59:00,
2013-03-26 22:14:00,38.7,32.0,30.05,WSW,257,4.0,-999.0,76,-99.99,,,0.00,weatherlink.com 1.10,2013-03-27 02:14:00,
2013-03-26 22:29:00,38.7,32.0,30.05,WSW,253,2.0,-999.0,76,-99.99,,,0.00,weatherlink.com 1.10,2013-03-27 02:29:00,
2013-03-26 22:44:00,38.6,32.0,30.05,West,262,1.0,-999.0,76,-99.99,,,0.00,weatherlink.com 1.10,2013-03-27 02:44:00,
2013-03-26 22:59:00,38.6,32.0,30.05,West,261,3.0,-999.0,76,-99.99,,,0.00,weatherlink.com 1.10,2013-03-27 02:59:00,
2013-03-26 23:14:00,38.5,31.0,30.05,West,262,1.0,-999.0,74,-99.99,,,0.00,weatherlink.com 1.10,2013-03-27 03:14:00,
2013-03-26 23:29:00,38.5,31.0,30.05,West,261,1.0,-999.0,74,-99.99,,,0.00,weatherlink.com 1.10,2013-03-27 03:29:00,
2013-03-26 23:45:00,38.4,31.0,30.05,West,260,0.0,-999.0,74,-99.99,,,0.00,weatherlink.com 1.10,2013-03-27 03:45:00,
2013-03-26 23:59:00,38.2,31.0,30.05,West,259,0.0,-999.0,74,-99.99,,,0.00,weatherlink.com 1.10,2013-03-27 03:59:00,